Time;durP1;ratioP1;P1;durP2;ratioP2;P2;SDS_P1;SDS_P2;PMS_P1;PMS_P2;Temp;Humidity;BMP_temperature;BMP_pressure;BME280_temperature;BME280_humidity;BME280_pressure;Samples;Min_cycle;Max_cycle;Signal;HPM_P1;HPM_P2
2023/07/16 05:26:05;;;;;;;2.20;1.08;;;;;;;21.32;74.91;96820.03;6199768;22;20085;-78
2023/07/16 05:28:33;;;;;;;2.67;1.27;;;;;;;21.32;72.69;96820.03;6245828;23;20028;-78
2023/07/16 05:31:01;;;;;;;2.15;1.20;;;;;;;21.42;74.49;96837.16;6244424;23;20024;-78
2023/07/16 05:33:29;;;;;;;2.33;0.77;;;;;;;21.46;75.00;96833.75;6243180;23;20028;-77
2023/07/16 05:35:57;;;;;;;1.55;1.02;;;;;;;21.46;74.34;96846.22;6244240;23;20035;-78
2023/07/16 05:38:24;;;;;;;2.05;1.10;;;;;;;21.45;74.85;96849.91;6244839;23;20016;-78
2023/07/16 05:40:52;;;;;;;1.67;1.15;;;;;;;21.40;74.66;96856.72;6244686;23;20369;-78
2023/07/16 05:43:21;;;;;;;3.47;1.17;;;;;;;21.31;70.63;96855.53;6244529;23;20047;-77
2023/07/16 05:45:49;;;;;;;3.45;1.50;;;;;;;21.31;74.69;96846.78;6244335;23;20020;-77
2023/07/16 05:48:17;;;;;;;3.80;1.08;;;;;;;21.26;70.16;96855.47;6244518;23;20552;-78
2023/07/16 05:50:45;;;;;;;2.55;1.02;;;;;;;21.28;72.40;96842.78;6244945;23;20342;-78
2023/07/16 05:53:13;;;;;;;1.55;0.93;;;;;;;21.32;72.65;96848.41;6244467;23;20050;-78
2023/07/16 05:55:41;;;;;;;4.30;1.40;;;;;;;21.29;72.53;96854.19;6244427;23;20053;-78
2023/07/16 05:58:09;;;;;;;3.80;1.25;;;;;;;21.25;70.22;96856.50;6244862;23;20019;-78
2023/07/16 06:00:39;;;;;;;1.13;0.95;;;;;;;21.29;75.76;96844.38;6244753;23;20024;-78
2023/07/16 06:03:07;;;;;;;3.30;1.60;;;;;;;21.34;74.68;96848.94;6244330;23;20024;-78
2023/07/16 06:05:36;;;;;;;2.28;1.35;;;;;;;21.35;72.91;96846.06;6243563;23;20477;-78
2023/07/16 06:08:04;;;;;;;3.55;1.60;;;;;;;21.28;68.51;96853.38;6243742;23;20020;-78
2023/07/16 06:10:34;;;;;;;4.47;1.50;;;;;;;21.28;73.44;96858.69;6244092;23;20531;-78
2023/07/16 06:13:02;;;;;;;2.33;1.13;;;;;;;21.29;74.54;96865.59;6244318;23;20145;-78
2023/07/16 06:15:30;;;;;;;1.75;1.30;;;;;;;21.31;74.31;96855.53;6239508;23;20024;-78
2023/07/16 06:17:58;;;;;;;2.08;1.15;;;;;;;21.28;74.87;96864.00;6244438;23;20020;-78
2023/07/16 06:20:26;;;;;;;6.22;1.10;;;;;;;21.32;75.49;96874.94;6243127;23;20531;-78
2023/07/16 06:22:54;;;;;;;6.13;1.13;;;;;;;21.24;68.17;96878.00;6244854;23;20024;-78
2023/07/16 06:25:22;;;;;;;2.92;1.42;;;;;;;21.25;74.40;96880.38;6244869;23;20082;-78
2023/07/16 06:27:49;;;;;;;3.30;1.05;;;;;;;21.24;73.55;96878.78;6242753;23;20028;-78
2023/07/16 06:30:17;;;;;;;4.15;1.70;;;;;;;21.24;68.90;96870.84;6244633;23;20020;-78
2023/07/16 06:32:45;;;;;;;3.47;1.60;;;;;;;21.25;72.53;96875.09;6244389;23;20469;-77
2023/07/16 06:35:14;;;;;;;3.67;1.40;;;;;;;21.29;73.91;96876.22;6243946;23;20020;-78
2023/07/16 06:37:41;;;;;;;3.65;1.65;;;;;;;21.32;73.05;96881.03;6244210;23;20081;-78
2023/07/16 06:40:09;;;;;;;6.45;1.33;;;;;;;21.32;71.39;96885.56;6244050;23;20020;-78
2023/07/16 06:42:37;;;;;;;3.58;1.20;;;;;;;21.39;73.96;96879.03;6243241;23;20059;-77
2023/07/16 06:45:05;;;;;;;5.35;1.55;;;;;;;21.38;68.44;96885.38;6244588;23;20020;-78
2023/07/16 06:47:33;;;;;;;5.43;1.30;;;;;;;21.36;67.77;96879.53;6244554;23;20372;-78
2023/07/16 06:50:00;;;;;;;3.47;1.52;;;;;;;21.33;71.17;96882.63;6243799;23;20024;-78
2023/07/16 06:52:30;;;;;;;6.13;1.50;;;;;;;21.31;71.98;96878.63;6244797;23;20327;-78
2023/07/16 06:54:58;;;;;;;4.70;1.15;;;;;;;21.37;71.52;96872.34;6244488;23;20099;-77
2023/07/16 06:57:26;;;;;;;3.00;1.10;;;;;;;21.32;66.46;96859.81;6244377;23;20024;-78
2023/07/16 06:59:53;;;;;;;5.72;1.27;;;;;;;21.26;69.90;96857.34;6243293;23;20090;-77
2023/07/16 07:02:21;;;;;;;3.83;1.55;;;;;;;21.24;72.66;96852.28;6244409;23;20074;-78
2023/07/16 07:04:49;;;;;;;4.13;1.20;;;;;;;21.24;71.41;96857.56;6244769;23;20055;-77
2023/07/16 07:07:16;;;;;;;4.75;1.63;;;;;;;21.24;71.51;96856.78;6243214;23;20535;-78
2023/07/16 07:09:48;;;;;;;4.65;1.35;;;;;;;21.21;71.35;96863.38;6244140;23;20052;-77
2023/07/16 07:12:16;;;;;;;3.15;1.15;;;;;;;21.23;73.67;96861.28;6243780;23;20031;-78
2023/07/16 07:14:43;;;;;;;4.82;1.50;;;;;;;21.18;67.27;96847.94;6242716;23;20284;-77
2023/07/16 07:17:11;;;;;;;7.20;1.85;;;;;;;21.11;66.61;96848.09;6244059;23;20052;-77
2023/07/16 07:19:38;;;;;;;3.10;1.60;;;;;;;21.13;66.23;96850.53;6246037;23;20082;-78
2023/07/16 07:22:06;;;;;;;4.40;1.20;;;;;;;21.20;69.38;96862.56;6243791;23;20078;-78
2023/07/16 07:24:34;;;;;;;4.18;1.40;;;;;;;21.25;70.47;96876.94;6243366;23;20103;-76
2023/07/16 07:27:03;;;;;;;4.00;1.70;;;;;;;21.30;68.64;96877.84;6245368;23;20072;-77
2023/07/16 07:29:30;;;;;;;4.32;1.50;;;;;;;21.37;71.82;96867.84;6270150;23;20020;-77
2023/07/16 07:31:59;;;;;;;3.65;1.50;;;;;;;21.37;66.34;96875.00;6269807;23;20024;-78
2023/07/16 07:34:27;;;;;;;1.77;1.35;;;;;;;21.41;70.64;96865.53;6254217;23;20024;-77
2023/07/16 07:36:55;;;;;;;3.58;1.88;;;;;;;21.50;69.55;96892.47;6246912;23;20051;-77
2023/07/16 07:39:22;;;;;;;2.35;1.25;;;;;;;21.52;65.95;96880.56;6246100;23;20047;-77
2023/07/16 07:41:50;;;;;;;6.75;1.45;;;;;;;21.53;68.35;96879.50;6246073;23;20028;-78
2023/07/16 07:44:19;;;;;;;6.93;1.20;;;;;;;21.53;65.46;96873.38;6245662;23;20534;-78
2023/07/16 07:46:47;;;;;;;2.95;1.27;;;;;;;21.54;64.80;96875.00;6246502;23;20043;-77
2023/07/16 07:49:14;;;;;;;2.05;1.42;;;;;;;21.59;67.42;96862.59;6245830;23;20016;-77
2023/07/16 07:51:42;;;;;;;3.92;1.40;;;;;;;21.63;65.28;96854.94;6245477;23;20440;-77
2023/07/16 07:54:10;;;;;;;2.08;1.30;;;;;;;21.67;64.36;96852.59;6246599;23;20027;-78
2023/07/16 07:56:38;;;;;;;3.60;1.60;;;;;;;21.71;64.17;96854.53;6245237;23;20255;-78
2023/07/16 07:59:06;;;;;;;2.58;1.42;;;;;;;21.78;66.15;96862.31;6246448;23;20020;-78
2023/07/16 08:01:36;;;;;;;2.65;1.33;;;;;;;21.81;62.83;96862.59;6245758;23;20028;-77
2023/07/16 08:04:04;;;;;;;3.70;1.20;;;;;;;21.79;61.95;96861.25;6245609;23;20034;-78
2023/07/16 08:06:32;;;;;;;4.63;1.17;;;;;;;21.82;62.62;96863.41;6246586;23;20070;-78
2023/07/16 08:09:00;;;;;;;1.52;1.17;;;;;;;21.90;60.47;96862.19;6246880;23;20078;-79
2023/07/16 08:11:27;;;;;;;1.85;1.00;;;;;;;22.05;65.63;96861.56;6246167;23;20020;-79
2023/07/16 08:13:55;;;;;;;2.42;1.05;;;;;;;22.16;63.01;96866.72;6244187;23;20107;-79
2023/07/16 08:16:23;;;;;;;2.13;1.25;;;;;;;22.25;65.45;96868.97;6245914;23;20031;-78
2023/07/16 08:18:51;;;;;;;3.63;1.10;;;;;;;22.34;63.09;96867.47;6247050;23;20051;-79
2023/07/16 08:21:19;;;;;;;3.40;1.42;;;;;;;22.37;61.63;96861.69;6247190;23;20020;-79
2023/07/16 08:23:48;;;;;;;3.33;1.63;;;;;;;22.40;59.65;96869.13;6247632;23;20020;-79
2023/07/16 08:26:16;;;;;;;4.18;1.27;;;;;;;22.41;61.39;96886.66;6247078;23;20024;-79
2023/07/16 08:28:44;;;;;;;3.33;1.42;;;;;;;22.38;59.38;96882.66;6247469;23;20067;-79
2023/07/16 08:31:12;;;;;;;2.45;1.27;;;;;;;22.43;60.57;96876.59;6246502;23;20020;-79
2023/07/16 08:33:40;;;;;;;3.00;1.10;;;;;;;22.55;59.41;96877.25;6246621;23;20017;-80
2023/07/16 08:36:10;;;;;;;6.07;1.75;;;;;;;22.67;59.21;96877.09;6246157;23;20086;-79
2023/07/16 08:38:37;;;;;;;2.97;1.10;;;;;;;22.77;59.27;96879.06;6246946;23;20082;-80
2023/07/16 08:41:05;;;;;;;2.42;1.42;;;;;;;22.81;57.64;96883.59;6245821;23;20466;-79
2023/07/16 08:43:34;;;;;;;2.15;0.98;;;;;;;22.86;61.63;96885.50;6245095;23;20020;-79
2023/07/16 08:46:02;;;;;;;9.45;1.73;;;;;;;22.93;57.86;96888.75;6246314;23;20028;-79
2023/07/16 08:48:30;;;;;;;3.17;1.20;;;;;;;23.01;57.14;96885.66;6245636;23;20024;-79
2023/07/16 08:51:02;;;;;;;2.38;1.13;;;;;;;23.18;59.54;96880.19;6245696;23;20016;-79
2023/07/16 08:53:31;;;;;;;;;;;;;;;23.32;57.91;96885.88;6247138;23;20031;-79
2023/07/16 08:55:59;;;;;;;2.63;1.10;;;;;;;23.34;56.85;96894.41;6245590;23;19969;-80
2023/07/16 08:58:27;;;;;;;5.90;1.13;;;;;;;23.28;55.08;96910.59;6246513;23;20377;-79
2023/07/16 09:00:56;;;;;;;4.25;1.35;;;;;;;23.22;55.05;96907.91;6246661;23;20046;-79
2023/07/16 09:03:25;;;;;;;2.03;1.00;;;;;;;23.21;53.54;96908.16;6244426;23;20070;-80
2023/07/16 09:05:54;;;;;;;3.08;1.35;;;;;;;23.18;53.34;96908.69;6246021;23;20086;-79
2023/07/16 09:08:28;;;;;;;2.15;0.82;;;;;;;23.08;53.88;96897.94;6245961;23;20028;-79
2023/07/16 09:10:57;;;;;;;2.45;1.13;;;;;;;23.02;53.06;96871.31;6245458;23;20020;-79
2023/07/16 09:13:27;;;;;;;1.45;0.85;;;;;;;23.07;54.33;96870.53;6245468;23;20097;-79
2023/07/16 09:15:57;;;;;;;4.05;1.80;;;;;;;23.15;54.38;96880.69;6245782;23;20095;-80
2023/07/16 09:18:26;;;;;;;3.60;1.20;;;;;;;23.24;55.17;96894.34;6244967;23;20031;-80
2023/07/16 09:20:57;;;;;;;4.28;1.10;;;;;;;23.29;52.35;96882.94;6246475;23;20020;-80
2023/07/16 09:23:27;;;;;;;2.92;1.13;;;;;;;23.32;52.63;96891.19;6245893;23;20396;-81
2023/07/16 09:25:58;;;;;;;3.90;1.20;;;;;;;23.41;51.08;96889.66;6245447;23;20047;-80
2023/07/16 09:28:26;;;;;;;4.55;1.50;;;;;;;23.53;52.62;96878.03;6245617;23;20016;-79
2023/07/16 09:30:54;;;;;;;4.70;1.10;;;;;;;23.68;52.37;96866.63;6245450;23;20373;-80
2023/07/16 09:33:25;;;;;;;5.68;0.95;;;;;;;23.79;52.00;96869.13;6244747;23;20058;-80
2023/07/16 09:35:53;;;;;;;3.45;1.30;;;;;;;23.89;51.65;96867.56;6245624;23;20400;-80
2023/07/16 09:38:21;;;;;;;2.30;1.13;;;;;;;23.92;51.38;96872.38;6245668;23;20473;-80
2023/07/16 09:40:51;;;;;;;4.72;1.48;;;;;;;23.93;52.04;96874.78;6245275;23;20020;-80
2023/07/16 09:43:21;;;;;;;1.30;0.85;;;;;;;23.97;50.52;96881.19;6246225;23;20019;-80
2023/07/16 09:45:49;;;;;;;2.22;1.42;;;;;;;23.99;50.67;96883.59;6245930;23;20029;-80
2023/07/16 09:48:17;;;;;;;3.22;1.20;;;;;;;24.09;51.13;96882.81;6244923;23;20020;-80
2023/07/16 09:50:50;;;;;;;3.42;1.02;;;;;;;24.20;50.37;96892.47;6245400;23;20331;-80
2023/07/16 09:53:20;;;;;;;3.20;1.20;;;;;;;24.29;54.25;96887.41;6246266;23;20031;-79
2023/07/16 09:55:49;;;;;;;3.72;1.25;;;;;;;24.36;50.13;96893.28;6271897;22;20016;-80
2023/07/16 09:58:22;;;;;;;2.90;1.20;;;;;;;24.32;50.15;96886.91;6273455;22;20052;-79
2023/07/16 10:00:51;;;;;;;2.85;1.00;;;;;;;24.34;52.79;96896.25;6273116;22;20035;-79
2023/07/16 10:03:19;;;;;;;2.40;1.20;;;;;;;24.47;53.18;96886.94;6267140;22;20031;-80
2023/07/16 10:05:47;;;;;;;2.25;0.98;;;;;;;24.56;53.23;96882.72;6246800;23;20020;-80
2023/07/16 10:08:20;;;;;;;2.50;1.17;;;;;;;24.56;51.95;96882.72;6246148;23;20094;-80
2023/07/16 10:10:51;;;;;;;2.17;1.10;;;;;;;24.55;48.76;96881.09;6245242;23;20012;-80
2023/07/16 10:13:23;;;;;;;2.10;1.08;;;;;;;24.54;48.66;96879.50;6245600;23;20082;-80
2023/07/16 10:15:53;;;;;;;3.08;1.20;;;;;;;24.60;52.61;96886.47;6246556;23;20020;-80
2023/07/16 10:18:30;;;;;;;1.60;1.10;;;;;;;24.71;51.51;96889.13;6248056;23;20020;-80
2023/07/16 10:21:05;;;;;;;2.17;1.25;;;;;;;24.71;48.65;96883.78;6246053;23;20020;-80
2023/07/16 10:23:41;;;;;;;2.35;0.95;;;;;;;24.66;48.11;96880.06;6244516;23;20535;-80
2023/07/16 10:26:11;;;;;;;5.15;1.85;;;;;;;24.61;48.16;96882.72;6244041;23;20024;-79
2023/07/16 10:28:46;;;;;;;1.75;1.10;;;;;;;24.57;47.97;96875.50;6245040;23;20022;-80
2023/07/16 10:31:19;;;;;;;2.20;1.27;;;;;;;24.55;49.58;96888.31;6244680;23;20473;-79
2023/07/16 10:33:58;;;;;;;4.65;1.50;;;;;;;24.50;48.39;96883.78;6244348;23;20335;-79
2023/07/16 10:36:26;;;;;;;2.60;1.40;;;;;;;24.49;48.34;96873.34;6245361;23;20058;-79
2023/07/16 10:38:53;;;;;;;2.45;1.13;;;;;;;24.56;49.73;96866.72;6244838;23;20024;-80
2023/07/16 10:41:21;;;;;;;4.25;1.58;;;;;;;24.70;49.47;96868.88;6245331;23;20070;-79
2023/07/16 10:43:50;;;;;;;3.45;1.90;;;;;;;24.81;50.19;96865.91;6244620;23;20024;-80
2023/07/16 10:46:22;;;;;;;2.25;1.40;;;;;;;24.91;52.34;96867.81;6245816;23;20024;-80
2023/07/16 10:48:49;;;;;;;1.77;1.20;;;;;;;25.01;53.08;96867.78;6245785;23;20020;-80
2023/07/16 10:51:17;;;;;;;1.48;0.98;;;;;;;25.12;50.81;96862.44;6244857;23;20016;-80
2023/07/16 10:53:45;;;;;;;2.08;1.30;;;;;;;25.20;48.11;96867.28;6244558;23;20401;-80
2023/07/16 10:56:12;;;;;;;2.33;1.20;;;;;;;25.23;48.63;96859.53;6245565;23;20078;-80
2023/07/16 10:58:40;;;;;;;5.25;1.55;;;;;;;25.29;49.18;96858.44;6245182;23;20028;-80
2023/07/16 11:01:10;;;;;;;3.10;1.15;;;;;;;25.40;48.03;96864.56;6244699;23;20028;-80
2023/07/16 11:03:38;;;;;;;1.80;1.13;;;;;;;25.50;48.60;96858.41;6245076;23;20020;-80
2023/07/16 11:06:09;;;;;;;3.10;0.93;;;;;;;25.61;47.07;96853.84;6245866;23;20028;-80
2023/07/16 11:08:37;;;;;;;2.50;0.90;;;;;;;25.65;46.33;96853.03;6245197;23;20020;-80
2023/07/16 11:11:04;;;;;;;2.75;1.20;;;;;;;25.65;49.25;96857.56;6255358;23;20005;-80
2023/07/16 11:13:33;;;;;;;2.08;1.15;;;;;;;25.62;46.43;96847.41;6272718;22;20004;-80
2023/07/16 11:16:07;;;;;;;2.65;1.30;;;;;;;25.62;46.01;96850.09;6271102;22;20048;-80
2023/07/16 11:18:37;;;;;;;4.72;1.30;;;;;;;25.64;46.95;96847.94;6253576;23;20078;-80
2023/07/16 11:21:04;;;;;;;1.65;1.30;;;;;;;25.69;47.05;96847.91;6246521;23;20067;-80
2023/07/16 11:23:34;;;;;;;5.90;1.52;;;;;;;25.63;49.07;96857.06;6247996;23;20024;-80
2023/07/16 11:26:03;;;;;;;4.28;1.20;;;;;;;25.56;48.12;96857.34;6244538;22;20051;-81
2023/07/16 11:28:37;;;;;;;3.30;1.23;;;;;;;25.52;46.15;96855.44;6246274;23;20046;-82
2023/07/16 11:31:11;;;;;;;5.82;1.80;;;;;;;25.55;47.22;96847.72;6244636;23;20043;-81
2023/07/16 11:33:43;;;;;;;1.02;0.90;;;;;;;25.62;46.41;96850.09;6245755;23;20020;-81
2023/07/16 11:36:10;;;;;;;3.72;2.17;;;;;;;25.66;46.40;96833.25;6245145;23;20016;-79
2023/07/16 11:38:38;;;;;;;2.88;1.48;;;;;;;25.69;46.17;96834.56;6245205;23;20023;-79
2023/07/16 11:41:06;;;;;;;2.30;1.23;;;;;;;25.67;46.60;96828.69;6244562;23;20050;-80
2023/07/16 11:43:37;;;;;;;1.63;1.30;;;;;;;25.67;46.19;96826.84;6268861;22;20047;-86
2023/07/16 11:46:15;;;;;;;1.20;0.90;;;;;;;25.73;49.60;96827.59;6272657;22;20023;-85
2023/07/16 11:48:44;;;;;;;1.25;1.08;;;;;;;25.82;48.66;96825.16;6246701;23;20032;-84
2023/07/16 11:51:12;;;;;;;2.47;1.73;;;;;;;25.87;47.30;96830.50;6244692;23;20059;-84
2023/07/16 11:53:39;;;;;;;2.53;1.42;;;;;;;25.87;46.50;96841.19;6245726;23;20086;-84
2023/07/16 11:56:07;;;;;;;3.17;1.40;;;;;;;25.89;46.50;96847.88;6245023;23;20077;-82
2023/07/16 11:58:35;;;;;;;3.42;1.60;;;;;;;25.95;45.79;96842.50;6245699;23;20082;-84
2023/07/16 12:01:03;;;;;;;2.15;1.20;;;;;;;26.00;48.60;96835.28;6244423;23;20016;-83
2023/07/16 12:03:31;;;;;;;1.98;1.13;;;;;;;26.07;45.74;96825.06;6245926;23;20024;-84
2023/07/16 12:06:00;;;;;;;1.25;0.93;;;;;;;26.14;47.70;96830.13;6244832;23;20074;-82
2023/07/16 12:08:27;;;;;;;3.30;1.20;;;;;;;26.18;46.84;96817.78;6245254;23;20082;-82
2023/07/16 12:10:55;;;;;;;1.48;1.25;;;;;;;26.16;45.30;96817.28;6244964;23;20016;-82
2023/07/16 12:13:23;;;;;;;2.08;1.45;;;;;;;26.13;45.70;96817.84;6244726;23;20082;-83
2023/07/16 12:15:50;;;;;;;2.97;1.35;;;;;;;26.15;44.79;96807.66;6245765;23;20082;-83
2023/07/16 12:18:18;;;;;;;4.05;1.65;;;;;;;26.15;44.58;96806.84;6245385;23;20017;-84
2023/07/16 12:20:46;;;;;;;1.92;1.30;;;;;;;26.15;44.52;96813.00;6244179;23;20104;-84
2023/07/16 12:23:15;;;;;;;3.88;1.20;;;;;;;26.20;44.89;96822.88;6245536;23;20024;-82
2023/07/16 12:25:43;;;;;;;1.85;1.27;;;;;;;26.24;44.29;96815.91;6245298;23;20062;-82
2023/07/16 12:28:11;;;;;;;1.77;1.27;;;;;;;26.26;44.22;96814.53;6247169;23;20357;-82
2023/07/16 12:30:39;;;;;;;2.15;1.23;;;;;;;26.31;45.14;96814.50;6256179;22;20027;-83
2023/07/16 12:33:07;;;;;;;1.67;1.15;;;;;;;26.36;45.91;96808.31;6252452;23;20020;-83
2023/07/16 12:35:34;;;;;;;1.00;0.90;;;;;;;26.42;44.88;96809.09;6249645;23;20035;-82
2023/07/16 12:38:02;;;;;;;3.92;1.25;;;;;;;26.43;43.96;96805.31;6249555;23;20081;-83
2023/07/16 12:40:31;;;;;;;2.10;1.30;;;;;;;26.39;43.29;96814.97;6249083;23;20026;-82
2023/07/16 12:42:59;;;;;;;2.47;1.50;;;;;;;26.31;43.26;96801.13;6247752;23;20031;-82
2023/07/16 12:45:27;;;;;;;2.95;1.13;;;;;;;26.25;44.58;96798.78;6248828;23;20027;-82
2023/07/16 12:47:54;;;;;;;3.92;1.35;;;;;;;26.25;44.39;96793.44;6248329;23;20039;-84
2023/07/16 12:50:22;;;;;;;1.48;1.20;;;;;;;26.29;44.66;96791.78;6247724;23;20051;-83
2023/07/16 12:52:50;;;;;;;3.22;1.35;;;;;;;26.36;43.98;96783.47;6247952;23;20016;-82
2023/07/16 12:55:17;;;;;;;1.35;0.95;;;;;;;26.42;44.89;96785.03;6246320;23;20082;-82
2023/07/16 12:57:46;;;;;;;2.28;1.55;;;;;;;26.45;44.79;96787.13;6248208;23;20024;-83
2023/07/16 13:00:14;;;;;;;1.30;1.17;;;;;;;26.45;45.14;96787.91;6247016;23;20024;-80
2023/07/16 13:02:42;;;;;;;5.05;1.30;;;;;;;26.47;43.50;96796.47;6246987;23;20024;-85
2023/07/16 13:05:09;;;;;;;2.15;1.40;;;;;;;26.44;42.24;96793.56;6246724;23;20095;-80
2023/07/16 13:07:37;;;;;;;1.55;0.90;;;;;;;26.36;41.62;96794.16;6246583;23;20032;-81
2023/07/16 13:10:09;;;;;;;2.88;1.05;;;;;;;26.33;41.61;96794.69;6246646;23;20401;-81
2023/07/16 13:12:51;;;;;;;2.97;0.95;;;;;;;26.34;45.22;96799.78;6246563;23;20020;-82
2023/07/16 13:15:19;;;;;;;2.40;1.17;;;;;;;26.37;42.59;96790.38;6246654;23;20024;-80
2023/07/16 13:17:48;;;;;;;3.40;1.23;;;;;;;26.39;44.98;96793.59;6246702;23;20024;-80
2023/07/16 13:20:16;;;;;;;1.45;0.80;;;;;;;26.45;44.96;96792.47;6246399;23;20032;-80
2023/07/16 13:22:43;;;;;;;2.00;1.20;;;;;;;26.47;42.84;96779.63;6246599;23;20024;-81
2023/07/16 13:25:11;;;;;;;1.60;0.88;;;;;;;26.46;41.96;96775.38;6245978;23;20044;-80
2023/07/16 13:27:39;;;;;;;3.20;1.15;;;;;;;26.45;42.03;96771.88;6246308;23;20024;-81
2023/07/16 13:30:09;;;;;;;1.40;0.90;;;;;;;26.47;42.19;96780.41;6245968;23;20024;-81
2023/07/16 13:32:36;;;;;;;1.83;1.48;;;;;;;26.50;41.82;96781.72;6257101;23;20227;-80
2023/07/16 13:35:05;;;;;;;3.28;0.82;;;;;;;26.55;45.10;96784.38;6256420;23;20030;-81
2023/07/16 13:37:32;;;;;;;0.90;0.90;;;;;;;26.59;42.50;96772.06;6251626;23;20377;-81
2023/07/16 13:40:00;;;;;;;1.05;0.95;;;;;;;26.59;43.43;96766.72;6246674;23;20066;-81
2023/07/16 13:42:28;;;;;;;1.70;1.13;;;;;;;26.57;45.15;96768.09;6247968;23;20020;-80
2023/07/16 13:44:56;;;;;;;1.80;1.20;;;;;;;26.51;44.43;96770.75;6247733;23;20023;-81
2023/07/16 13:47:25;;;;;;;5.05;1.25;;;;;;;26.46;42.17;96767.34;6247234;23;20027;-81
2023/07/16 13:49:56;;;;;;;1.38;1.10;;;;;;;26.45;43.13;96769.19;6246992;23;20078;-80
2023/07/16 13:52:24;;;;;;;2.40;1.02;;;;;;;26.49;42.22;96766.78;6246954;23;20070;-81
2023/07/16 13:54:51;;;;;;;1.13;0.90;;;;;;;26.51;40.62;96760.06;6246773;23;20031;-80
2023/07/16 13:57:19;;;;;;;1.60;1.27;;;;;;;26.46;40.67;96770.03;6246736;23;20488;-80
2023/07/16 13:59:46;;;;;;;4.03;1.00;;;;;;;26.48;40.74;96770.53;6246887;23;20028;-81
2023/07/16 14:02:14;;;;;;;1.33;0.95;;;;;;;26.55;41.54;96760.31;6246924;23;20066;-81
2023/07/16 14:04:43;;;;;;;1.73;1.17;;;;;;;26.61;40.56;96761.91;6247603;23;20023;-81
2023/07/16 14:07:11;;;;;;;2.10;0.88;;;;;;;26.64;40.40;96753.28;6246494;23;20500;-80
2023/07/16 14:09:39;;;;;;;3.45;1.27;;;;;;;26.69;40.46;96749.78;6246446;23;20020;-81
2023/07/16 14:12:07;;;;;;;4.80;1.13;;;;;;;26.71;40.20;96747.63;6246888;23;20024;-81
2023/07/16 14:14:35;;;;;;;1.52;0.90;;;;;;;26.71;42.62;96761.00;6249927;23;20032;-81
2023/07/16 14:17:03;;;;;;;1.27;1.17;;;;;;;26.74;41.16;96748.94;6249579;23;20020;-81
2023/07/16 14:19:30;;;;;;;2.60;1.40;;;;;;;26.72;39.60;96751.91;6249328;23;20027;-81
2023/07/16 14:21:59;;;;;;;2.88;1.05;;;;;;;26.67;39.05;96758.06;6248278;23;20024;-81
2023/07/16 14:24:27;;;;;;;1.30;1.10;;;;;;;26.64;39.97;96747.94;6247601;23;20028;-80
2023/07/16 14:27:00;;;;;;;1.67;1.00;;;;;;;26.65;40.17;96748.72;6247265;23;20032;-81
2023/07/16 14:29:29;;;;;;;1.90;1.05;;;;;;;26.63;39.11;96745.53;6247258;23;20449;-80
2023/07/16 14:31:56;;;;;;;4.15;1.15;;;;;;;26.58;40.23;96754.41;6246435;23;20500;-80
2023/07/16 14:34:26;;;;;;;1.15;0.85;;;;;;;26.54;39.72;96747.19;6247616;23;20078;-81
2023/07/16 14:36:53;;;;;;;3.88;1.65;;;;;;;26.51;39.84;96743.22;6247621;23;20031;-81
2023/07/16 14:39:23;;;;;;;2.47;1.10;;;;;;;26.48;40.62;96754.50;6248561;23;20070;-80
2023/07/16 14:41:50;;;;;;;1.85;1.10;;;;;;;26.49;41.74;96754.19;6239099;23;20024;-81
2023/07/16 14:44:18;;;;;;;1.83;1.02;;;;;;;26.50;40.49;96760.34;6253153;23;20027;-81
2023/07/16 14:46:46;;;;;;;2.15;1.10;;;;;;;26.49;39.10;96772.13;6247865;23;20016;-80
2023/07/16 14:49:13;;;;;;;1.30;1.05;;;;;;;26.47;39.94;96761.69;6247654;23;20023;-80
2023/07/16 14:51:41;;;;;;;2.20;1.10;;;;;;;26.46;40.56;96767.34;6246002;23;20024;-79
2023/07/16 14:54:10;;;;;;;2.38;1.23;;;;;;;26.44;43.07;96764.16;6245028;23;20016;-82
2023/07/16 14:56:39;;;;;;;1.23;0.95;;;;;;;26.42;40.62;96760.94;6245614;23;20020;-79
2023/07/16 14:59:06;;;;;;;1.70;1.30;;;;;;;26.43;42.94;96763.31;6246373;23;20020;-81
2023/07/16 15:01:34;;;;;;;1.52;1.00;;;;;;;26.48;41.22;96767.88;6251492;23;20040;-83
2023/07/16 15:04:01;;;;;;;2.53;1.33;;;;;;;26.48;40.31;96768.66;6271058;23;20075;-81
2023/07/16 15:06:29;;;;;;;1.58;1.02;;;;;;;26.45;41.43;96765.72;6266980;22;20034;-81
2023/07/16 15:08:57;;;;;;;2.58;1.30;;;;;;;26.40;40.25;96758.56;6246377;23;20445;-80
2023/07/16 15:11:25;;;;;;;3.40;1.35;;;;;;;26.42;42.88;96760.94;6246086;23;20477;-80
2023/07/16 15:13:54;;;;;;;2.95;1.38;;;;;;;26.44;41.51;96758.81;6246311;23;20023;-82
2023/07/16 15:16:22;;;;;;;3.28;1.08;;;;;;;26.46;41.43;96748.63;6245589;23;20447;-83
2023/07/16 15:18:50;;;;;;;2.92;1.30;;;;;;;26.47;42.60;96759.00;6244851;23;20017;-80
2023/07/16 15:21:17;;;;;;;2.40;1.27;;;;;;;26.48;42.21;96752.59;6245420;23;20074;-80
2023/07/16 15:23:45;;;;;;;3.40;1.30;;;;;;;26.46;41.66;96753.97;6246118;23;20024;-80
2023/07/16 15:26:13;;;;;;;2.25;1.02;;;;;;;26.44;44.08;96748.09;6246216;23;20420;-80
2023/07/16 15:28:43;;;;;;;1.95;1.10;;;;;;;26.43;41.91;96747.28;6246669;23;20353;-80
2023/07/16 15:31:12;;;;;;;5.35;2.95;;;;;;;26.41;41.87;96740.63;6245331;23;20060;-80
2023/07/16 15:33:40;;;;;;;3.70;2.13;;;;;;;26.41;41.89;96748.63;6245354;23;20066;-81
2023/07/16 15:36:08;;;;;;;2.67;1.45;;;;;;;26.42;40.79;96734.22;6246019;23;20024;-81
2023/07/16 15:38:36;;;;;;;2.47;1.42;;;;;;;26.39;41.47;96734.75;6245567;23;20024;-81
2023/07/16 15:41:06;;;;;;;2.67;1.80;;;;;;;26.39;43.16;96740.09;6245149;23;20400;-81
2023/07/16 15:43:33;;;;;;;3.97;1.90;;;;;;;26.38;41.58;96741.19;6245619;23;20078;-81
2023/07/16 15:46:01;;;;;;;2.47;1.55;;;;;;;26.35;44.35;96739.06;6245106;23;20024;-84
2023/07/16 15:48:30;;;;;;;2.72;1.67;;;;;;;26.33;41.58;96741.22;6245099;23;20074;-81
2023/07/16 15:50:59;;;;;;;1.98;1.35;;;;;;;26.30;42.14;96735.38;6245627;23;20050;-81
2023/07/16 15:53:26;;;;;;;1.85;1.20;;;;;;;26.25;40.84;96735.38;6245669;23;20020;-82
2023/07/16 15:55:54;;;;;;;2.42;1.67;;;;;;;26.21;40.44;96722.84;6245144;23;20099;-81
2023/07/16 15:58:22;;;;;;;1.45;1.30;;;;;;;26.14;41.09;96723.19;6245673;23;20020;-81
2023/07/16 16:00:50;;;;;;;2.00;1.55;;;;;;;26.08;43.17;96721.63;6245751;23;20016;-81
2023/07/16 16:03:18;;;;;;;6.90;4.43;;;;;;;26.08;44.40;96719.72;6246476;23;20023;-81
2023/07/16 16:05:47;;;;;;;6.88;4.28;;;;;;;26.11;41.83;96718.41;6246801;23;20046;-81
2023/07/16 16:08:16;;;;;;;3.58;2.45;;;;;;;26.13;45.91;96726.94;6247049;23;20059;-82
2023/07/16 16:10:47;;;;;;;3.42;1.60;;;;;;;26.15;44.33;96718.63;6246817;23;20020;-80
2023/07/16 16:13:15;;;;;;;1.98;1.20;;;;;;;26.15;42.21;96724.78;6247236;23;20112;-80
2023/07/16 16:15:44;;;;;;;3.03;1.45;;;;;;;26.13;43.36;96716.25;6247930;23;20020;-83
2023/07/16 16:18:13;;;;;;;2.75;1.45;;;;;;;26.11;41.56;96713.06;6247624;23;20024;-80
2023/07/16 16:20:41;;;;;;;3.30;1.58;;;;;;;26.12;42.42;96711.97;6246542;23;20027;-80
2023/07/16 16:23:10;;;;;;;2.33;1.73;;;;;;;26.11;41.17;96713.06;6246930;23;20023;-82
2023/07/16 16:25:38;;;;;;;2.42;1.75;;;;;;;26.10;41.48;96700.75;6247372;23;20023;-80
2023/07/16 16:28:07;;;;;;;1.48;1.38;;;;;;;26.10;43.33;96716.78;6246492;23;20462;-80
2023/07/16 16:30:36;;;;;;;2.88;1.52;;;;;;;26.12;42.24;96719.97;6246788;23;20513;-82
2023/07/16 16:33:05;;;;;;;1.80;1.45;;;;;;;26.11;40.95;96707.72;6247875;23;20107;-81
2023/07/16 16:35:34;;;;;;;1.85;1.70;;;;;;;26.08;40.65;96714.38;6246763;23;20024;-81
2023/07/16 16:38:02;;;;;;;3.35;2.50;;;;;;;26.05;40.96;96709.59;6248259;23;20024;-81
2023/07/16 16:40:32;;;;;;;2.47;1.98;;;;;;;26.03;42.12;96713.63;6244496;23;20030;-80
2023/07/16 16:43:00;;;;;;;1.70;1.60;;;;;;;25.97;41.46;96712.06;6248266;23;20058;-83
2023/07/16 16:45:28;;;;;;;5.53;1.83;;;;;;;25.96;43.32;96715.84;6247212;23;20388;-83
2023/07/16 16:47:56;;;;;;;4.32;2.00;;;;;;;25.99;45.90;96725.97;6246516;23;20466;-84
2023/07/16 16:50:23;;;;;;;2.88;1.80;;;;;;;26.02;46.33;96720.03;6247809;23;20038;-83
2023/07/16 16:52:51;;;;;;;2.08;1.67;;;;;;;26.03;42.77;96721.66;6249380;23;20031;-81
2023/07/16 16:55:19;;;;;;;2.10;1.15;;;;;;;26.02;44.46;96717.38;6252532;23;20012;-86
2023/07/16 16:57:51;;;;;;;3.38;1.30;;;;;;;26.02;42.37;96728.88;6250966;23;20013;-85
2023/07/16 17:00:19;;;;;;;2.88;1.50;;;;;;;26.06;45.63;96726.44;6252395;23;20469;-85
2023/07/16 17:02:47;;;;;;;1.95;1.40;;;;;;;26.10;46.41;96722.13;6253400;23;20100;-86
2023/07/16 17:05:16;;;;;;;4.43;1.70;;;;;;;26.12;42.89;96719.19;6250153;23;20020;-82